Time;durP1;ratioP1;P1;durP2;ratioP2;P2;SDS_P1;SDS_P2;PMS_P1;PMS_P2;Temp;Humidity;BMP_temperature;BMP_pressure;BME280_temperature;BME280_humidity;BME280_pressure;Samples;Min_cycle;Max_cycle;Signal;HPM_P1;HPM_P2
2022/01/14 00:01:24;;;;;;;48.30;21.55;;;5.30;99.90;;;;;;4848757;29;20045;-65
2022/01/14 00:03:49;;;;;;;50.83;21.55;;;5.30;99.90;;;;;;4850384;29;20510;-65
2022/01/14 00:06:14;;;;;;;53.97;22.60;;;5.30;99.90;;;;;;4853806;29;20037;-65
2022/01/14 00:08:40;;;;;;;46.80;22.17;;;5.30;99.90;;;;;;4845870;29;20036;-65
2022/01/14 00:11:14;;;;;;;62.42;23.23;;;5.30;99.90;;;;;;4854603;29;20074;-66
2022/01/14 00:13:50;;;;;;;54.40;22.50;;;5.30;99.90;;;;;;4843283;29;20059;-65
2022/01/14 00:16:16;;;;;;;57.22;22.40;;;5.30;99.90;;;;;;4836848;29;20033;-66
2022/01/14 00:18:41;;;;;;;84.88;33.50;;;5.30;99.90;;;;;;4844245;29;20044;-67
2022/01/14 00:21:07;;;;;;;54.50;24.08;;;5.30;99.90;;;;;;4854523;29;20033;-65
2022/01/14 00:23:37;;;;;;;56.38;22.80;;;5.30;99.90;;;;;;4862159;29;20041;-65
2022/01/14 00:34:12;;;;;;;52.42;23.70;;;5.30;99.90;;;;;;4841677;29;20041;-65
2022/01/14 00:36:37;;;;;;;50.20;23.02;;;5.30;99.90;;;;;;4856181;29;20412;-66
2022/01/14 00:39:02;;;;;;;52.03;23.15;;;5.30;99.90;;;;;;4863302;29;20035;-65
2022/01/14 00:41:28;;;;;;;51.85;23.17;;;5.40;99.90;;;;;;4869635;29;20474;-65
2022/01/14 00:44:00;;;;;;;50.08;23.10;;;5.30;99.90;;;;;;4849769;29;20037;-66
2022/01/14 00:46:26;;;;;;;62.67;25.00;;;5.30;99.90;;;;;;4848169;29;20042;-65
2022/01/14 00:48:51;;;;;;;64.68;23.33;;;5.30;99.90;;;;;;4852883;29;20097;-65
2022/01/14 00:51:17;;;;;;;57.78;22.63;;;5.30;99.90;;;;;;4845629;29;20029;-65
2022/01/14 00:53:42;;;;;;;58.53;22.67;;;5.30;99.90;;;;;;4859568;29;20433;-65
2022/01/14 00:56:21;;;;;;;57.55;23.33;;;5.30;99.90;;;;;;4853063;29;20036;-66
2022/01/14 01:01:31;;;;;;;53.10;22.88;;;5.40;99.90;;;;;;4848514;29;20120;-65
2022/01/14 01:03:56;;;;;;;51.33;23.95;;;5.40;99.90;;;;;;4854732;29;20041;-65
2022/01/14 01:06:22;;;;;;;53.25;22.13;;;5.40;99.90;;;;;;4842170;29;20075;-65
2022/01/14 01:08:50;;;;;;;60.42;23.58;;;5.40;99.90;;;;;;4855126;29;20043;-66
2022/01/14 01:11:18;;;;;;;60.08;22.63;;;5.40;99.90;;;;;;4858083;29;20072;-66
2022/01/14 01:13:49;;;;;;;58.38;22.13;;;5.30;99.90;;;;;;4854090;29;20069;-65
2022/01/14 01:16:15;;;;;;;52.35;23.98;;;5.30;99.90;;;;;;4846581;29;20045;-66
2022/01/14 01:18:40;;;;;;;59.45;23.95;;;5.40;99.90;;;;;;4858214;29;20035;-66
2022/01/14 01:21:06;;;;;;;54.83;23.35;;;5.30;99.90;;;;;;4852419;29;20072;-65
2022/01/14 01:23:31;;;;;;;58.58;23.73;;;5.30;99.90;;;;;;4856369;29;20040;-66
2022/01/14 01:26:12;;;;;;;58.40;22.40;;;5.40;99.90;;;;;;4837658;29;20037;-65
2022/01/14 01:28:52;;;;;;;60.35;23.60;;;5.30;99.90;;;;;;4847804;29;20042;-66
2022/01/14 01:31:38;;;;;;;56.13;25.58;;;5.30;99.90;;;;;;4864946;29;20509;-65
2022/01/14 01:34:03;;;;;;;56.00;23.25;;;5.30;99.90;;;;;;4846688;29;20041;-66
2022/01/14 01:36:29;;;;;;;60.00;23.88;;;5.30;99.90;;;;;;4854818;29;20030;-65
2022/01/14 01:38:54;;;;;;;55.00;24.30;;;5.30;99.90;;;;;;4850044;29;20044;-65
2022/01/14 01:41:19;;;;;;;59.92;25.13;;;5.30;99.90;;;;;;4836396;29;20722;-65
2022/01/14 01:43:50;;;;;;;62.47;25.20;;;5.30;99.90;;;;;;4848986;29;20129;-66
2022/01/14 01:46:16;;;;;;;58.90;24.20;;;5.40;99.90;;;;;;4860545;29;20171;-65
2022/01/14 01:48:41;;;;;;;57.65;23.60;;;5.30;99.90;;;;;;4848906;29;20041;-65
2022/01/14 01:51:07;;;;;;;64.57;25.25;;;5.30;99.90;;;;;;4862380;29;20409;-65
2022/01/14 01:53:32;;;;;;;60.78;26.70;;;5.30;99.90;;;;;;4858218;29;20032;-66
2022/01/14 01:55:58;;;;;;;70.07;25.55;;;5.30;99.90;;;;;;4848999;29;20025;-65
2022/01/14 01:58:23;;;;;;;63.67;24.73;;;5.30;99.90;;;;;;4857695;29;20037;-66
2022/01/14 02:00:48;;;;;;;63.63;25.77;;;5.30;99.90;;;;;;4856744;29;20137;-65
2022/01/14 02:03:14;;;;;;;58.75;23.75;;;5.30;99.90;;;;;;4853752;29;20038;-66
2022/01/14 02:05:39;;;;;;;64.05;25.27;;;5.30;99.90;;;;;;4853236;29;20243;-66
2022/01/14 02:08:05;;;;;;;59.95;24.10;;;5.30;99.90;;;;;;4855855;29;20032;-65
2022/01/14 02:10:30;;;;;;;60.05;24.35;;;5.30;99.90;;;;;;4845700;29;20073;-66
2022/01/14 02:12:56;;;;;;;63.40;25.98;;;5.30;99.90;;;;;;4855318;29;20033;-65
2022/01/14 02:15:42;;;;;;;67.97;25.15;;;5.20;99.90;;;;;;4859091;29;20033;-66
2022/01/14 02:23:22;;;;;;;64.93;27.23;;;5.20;99.90;;;;;;4853248;29;20525;-66
2022/01/14 02:25:48;;;;;;;63.78;25.77;;;5.20;99.90;;;;;;4851533;29;20112;-66
2022/01/14 02:28:14;;;;;;;59.85;24.08;;;5.20;99.90;;;;;;4865701;29;20051;-65
2022/01/14 02:30:39;;;;;;;67.13;25.38;;;5.20;99.90;;;;;;4862624;29;20032;-66
2022/01/14 02:33:05;;;;;;;66.88;26.33;;;5.20;99.90;;;;;;4858104;29;20591;-65
2022/01/14 02:35:30;;;;;;;82.65;28.52;;;5.20;99.90;;;;;;4863018;29;20029;-66
2022/01/14 02:37:56;;;;;;;79.00;27.50;;;5.10;99.90;;;;;;4851887;29;20738;-65
2022/01/14 02:40:21;;;;;;;78.40;28.75;;;5.10;99.90;;;;;;4858993;29;20125;-65
2022/01/14 02:42:48;;;;;;;77.25;28.80;;;5.10;99.90;;;;;;4866073;29;20493;-66
2022/01/14 02:45:14;;;;;;;79.32;28.98;;;5.10;99.90;;;;;;4859012;29;20041;-65
2022/01/14 02:47:39;;;;;;;80.18;29.88;;;5.00;99.90;;;;;;4863629;29;20119;-65
2022/01/14 02:50:06;;;;;;;75.32;28.30;;;5.00;99.90;;;;;;4833742;29;20121;-65
2022/01/14 02:55:18;;;;;;;88.15;29.73;;;5.00;99.90;;;;;;4836167;29;20106;-66
2022/01/14 02:57:44;;;;;;;76.57;27.88;;;5.00;99.90;;;;;;4861761;29;20081;-66
2022/01/14 03:00:09;;;;;;;76.38;29.23;;;5.00;99.90;;;;;;4848987;29;20041;-66
2022/01/14 03:02:35;;;;;;;90.35;30.20;;;5.00;99.90;;;;;;4853910;29;20781;-66
2022/01/14 03:05:00;;;;;;;81.53;29.55;;;5.00;99.90;;;;;;4836322;29;20353;-65
2022/01/14 03:07:26;;;;;;;87.55;30.13;;;5.00;99.90;;;;;;4859133;29;20409;-65
2022/01/14 03:09:51;;;;;;;80.50;29.80;;;5.00;99.90;;;;;;4869008;29;20552;-65
2022/01/14 03:12:16;;;;;;;93.82;29.83;;;5.00;99.90;;;;;;4862492;29;20033;-66
2022/01/14 03:14:42;;;;;;;80.10;29.77;;;5.00;99.90;;;;;;4853213;29;20040;-65
2022/01/14 03:17:07;;;;;;;77.93;29.60;;;5.00;99.90;;;;;;4860431;29;20037;-65
2022/01/14 03:19:33;;;;;;;79.22;29.13;;;5.00;99.90;;;;;;4859704;29;20071;-65
2022/01/14 03:22:17;;;;;;;83.72;29.42;;;5.00;99.90;;;;;;4861732;29;20033;-65
2022/01/14 03:27:08;;;;;;;92.70;31.63;;;4.90;99.90;;;;;;4857834;29;20048;-65
2022/01/14 03:29:34;;;;;;;92.07;31.88;;;5.00;99.90;;;;;;4849667;29;20113;-66
2022/01/14 03:31:59;;;;;;;101.28;30.45;;;5.00;99.90;;;;;;4835800;29;20398;-65
2022/01/14 03:34:25;;;;;;;102.65;35.20;;;5.00;99.90;;;;;;4850997;29;20128;-65
2022/01/14 03:36:50;;;;;;;110.93;35.80;;;4.90;99.90;;;;;;4856242;29;20759;-65
2022/01/14 03:39:16;;;;;;;92.78;31.00;;;5.00;99.90;;;;;;4859477;29;20057;-65
2022/01/14 03:41:41;;;;;;;90.85;33.00;;;5.00;99.90;;;;;;4847455;29;20044;-65
2022/01/14 03:44:07;;;;;;;105.25;34.45;;;5.00;99.90;;;;;;4858474;29;20033;-65
2022/01/14 03:46:32;;;;;;;102.22;35.17;;;5.00;99.90;;;;;;4850639;29;20757;-65
2022/01/14 03:48:58;;;;;;;109.28;34.88;;;4.90;99.90;;;;;;4855703;29;20041;-65
2022/01/14 03:51:24;;;;;;;107.25;35.60;;;5.00;99.90;;;;;;4848817;29;20112;-65
2022/01/14 03:53:49;;;;;;;105.75;33.85;;;4.90;99.90;;;;;;4848565;29;20025;-66
2022/01/14 03:56:15;;;;;;;113.13;35.80;;;4.90;99.90;;;;;;4852295;29;20593;-65
2022/01/14 03:58:40;;;;;;;119.72;35.42;;;4.90;99.90;;;;;;4855467;29;20029;-65
2022/01/14 04:01:07;;;;;;;123.70;36.78;;;4.90;99.90;;;;;;4850384;29;20093;-65
2022/01/14 04:03:32;;;;;;;122.05;36.05;;;4.80;99.90;;;;;;4848024;29;20834;-66
2022/01/14 04:05:58;;;;;;;123.65;36.00;;;4.90;99.90;;;;;;4854907;29;20092;-66
2022/01/14 04:08:23;;;;;;;128.77;37.25;;;4.80;99.90;;;;;;4837143;29;20034;-65
2022/01/14 04:10:52;;;;;;;131.63;38.42;;;4.80;99.90;;;;;;4853264;29;20043;-65
2022/01/14 04:13:22;;;;;;;142.07;38.97;;;4.80;99.90;;;;;;4842930;29;20038;-65
2022/01/14 04:15:48;;;;;;;123.93;36.83;;;4.80;99.90;;;;;;4848588;29;20180;-65
2022/01/14 04:18:15;;;;;;;132.95;37.15;;;4.80;99.90;;;;;;4851962;29;20048;-65
2022/01/14 04:20:40;;;;;;;141.73;38.45;;;4.80;99.90;;;;;;4852277;29;20060;-66
2022/01/14 04:23:06;;;;;;;131.63;38.08;;;4.80;99.90;;;;;;4862592;29;20128;-66
2022/01/14 04:25:31;;;;;;;143.32;41.70;;;4.80;99.90;;;;;;4858555;29;20025;-66
2022/01/14 04:27:57;;;;;;;148.63;40.03;;;4.80;99.90;;;;;;4856969;29;20061;-66
2022/01/14 04:30:22;;;;;;;144.70;39.78;;;4.70;99.90;;;;;;4854132;29;20684;-65
2022/01/14 04:32:48;;;;;;;142.90;38.45;;;4.80;99.90;;;;;;4852959;29;20116;-65
2022/01/14 04:35:13;;;;;;;146.07;40.92;;;4.80;99.90;;;;;;4863579;29;20108;-66
2022/01/14 04:37:39;;;;;;;130.95;36.47;;;4.80;99.90;;;;;;4855575;29;20021;-66
2022/01/14 04:40:04;;;;;;;137.40;36.60;;;4.80;99.90;;;;;;4858696;29;20455;-65
2022/01/14 04:42:30;;;;;;;157.43;39.80;;;4.80;99.90;;;;;;4848408;29;20502;-65
2022/01/14 04:44:56;;;;;;;151.05;39.78;;;4.80;99.90;;;;;;4857299;29;20928;-65
2022/01/14 04:50:06;;;;;;;162.80;38.80;;;4.80;99.90;;;;;;4860210;29;20037;-65
2022/01/14 04:52:32;;;;;;;147.88;39.10;;;4.70;99.90;;;;;;4857478;29;20505;-65
2022/01/14 04:54:57;;;;;;;151.88;40.05;;;4.70;99.90;;;;;;4835014;29;20045;-65
2022/01/14 04:57:23;;;;;;;175.27;41.30;;;4.70;99.90;;;;;;4851066;29;20029;-65
2022/01/14 04:59:48;;;;;;;178.65;41.63;;;4.70;99.90;;;;;;4857018;29;20239;-65
2022/01/14 05:02:14;;;;;;;165.48;40.33;;;4.60;99.90;;;;;;4845706;29;20064;-65
2022/01/14 05:04:40;;;;;;;171.32;41.33;;;4.60;99.90;;;;;;4860226;29;20978;-64
2022/01/14 05:07:09;;;;;;;187.48;47.47;;;4.60;99.90;;;;;;4854487;29;20578;-65
2022/01/14 05:09:40;;;;;;;180.55;40.15;;;4.60;99.90;;;;;;4847392;29;20988;-66
2022/01/14 05:12:09;;;;;;;179.50;41.67;;;4.60;99.90;;;;;;4850136;29;20038;-65
2022/01/14 05:14:34;;;;;;;176.07;43.38;;;4.60;99.90;;;;;;4853363;29;20043;-65
2022/01/14 05:17:00;;;;;;;192.77;45.05;;;4.60;99.90;;;;;;4863507;29;20042;-65
2022/01/14 05:19:25;;;;;;;188.00;43.35;;;4.50;99.90;;;;;;4863416;29;20504;-65
2022/01/14 05:21:51;;;;;;;191.60;44.08;;;4.50;99.90;;;;;;4864312;29;20041;-66
2022/01/14 05:24:16;;;;;;;190.60;42.90;;;4.50;99.90;;;;;;4851259;29;20065;-65
2022/01/14 05:26:42;;;;;;;201.20;44.85;;;4.50;99.90;;;;;;4857035;29;20034;-65
2022/01/14 05:29:07;;;;;;;175.57;41.95;;;4.50;99.90;;;;;;4859042;29;20128;-66
2022/01/14 05:31:33;;;;;;;195.30;44.83;;;4.50;99.90;;;;;;4865658;29;20037;-65
2022/01/14 05:33:58;;;;;;;176.75;43.13;;;4.40;99.90;;;;;;4836813;29;20045;-66
2022/01/14 05:36:25;;;;;;;192.13;44.17;;;4.40;99.90;;;;;;4857842;29;20064;-65
2022/01/14 05:38:50;;;;;;;188.52;43.88;;;4.40;99.90;;;;;;4844255;29;20038;-65
2022/01/14 05:41:16;;;;;;;176.88;42.20;;;4.40;99.90;;;;;;4850691;29;20096;-65
2022/01/14 05:43:41;;;;;;;179.60;41.97;;;4.50;99.90;;;;;;4846835;29;20060;-66
2022/01/14 05:46:07;;;;;;;185.43;41.50;;;4.50;99.90;;;;;;4854644;29;20037;-66
2022/01/14 05:48:32;;;;;;;194.05;44.97;;;4.40;99.90;;;;;;4851603;29;20044;-66
2022/01/14 05:50:58;;;;;;;182.55;42.25;;;4.40;99.90;;;;;;4856376;29;20029;-65
2022/01/14 05:53:23;;;;;;;177.45;40.65;;;4.50;99.90;;;;;;4854072;29;20064;-65
2022/01/14 05:55:49;;;;;;;168.82;40.60;;;4.40;99.90;;;;;;4847590;29;20033;-65
2022/01/14 05:58:14;;;;;;;175.73;43.38;;;4.40;99.90;;;;;;4856411;29;20570;-65
2022/01/14 06:00:40;;;;;;;193.50;43.53;;;4.40;99.90;;;;;;4850151;29;20037;-65
2022/01/14 06:03:05;;;;;;;195.38;42.78;;;4.40;99.90;;;;;;4853473;29;20034;-65
2022/01/14 06:05:31;;;;;;;178.52;41.10;;;4.40;99.90;;;;;;4857540;29;20062;-66
2022/01/14 06:07:56;;;;;;;180.38;42.85;;;4.40;99.90;;;;;;4850011;29;20112;-65
2022/01/14 06:10:22;;;;;;;171.95;41.40;;;4.40;99.90;;;;;;4838453;29;20033;-65
2022/01/14 06:12:48;;;;;;;179.23;43.00;;;4.40;99.90;;;;;;4864802;29;20125;-66
2022/01/14 06:15:13;;;;;;;163.77;41.88;;;4.40;99.90;;;;;;4848303;29;20029;-66
2022/01/14 06:17:39;;;;;;;163.60;40.58;;;4.40;99.90;;;;;;4843860;29;20544;-66
2022/01/14 06:20:04;;;;;;;165.70;40.15;;;4.40;99.90;;;;;;4853147;29;20076;-66
2022/01/14 06:22:30;;;;;;;150.85;40.10;;;4.50;99.90;;;;;;4852749;29;20116;-65
2022/01/14 06:24:57;;;;;;;144.50;40.58;;;4.40;99.90;;;;;;4859482;29;20132;-66
2022/01/14 06:27:22;;;;;;;147.88;39.47;;;4.50;99.90;;;;;;4848257;29;20038;-65
2022/01/14 06:29:48;;;;;;;133.90;37.00;;;4.50;99.90;;;;;;4853660;29;20044;-66
2022/01/14 06:32:13;;;;;;;118.88;35.10;;;4.50;99.90;;;;;;4842367;29;20499;-65
2022/01/14 06:34:39;;;;;;;130.48;38.92;;;4.50;99.90;;;;;;4855163;29;20413;-65
2022/01/14 06:37:04;;;;;;;128.07;36.15;;;4.60;99.90;;;;;;4839449;29;20128;-65
2022/01/14 06:39:30;;;;;;;112.63;34.53;;;4.50;99.90;;;;;;4861538;29;20804;-66
2022/01/14 06:41:55;;;;;;;116.70;34.58;;;4.60;99.90;;;;;;4840701;29;20788;-69
2022/01/14 06:44:21;;;;;;;99.75;32.20;;;4.60;99.90;;;;;;4853404;29;20315;-69
2022/01/14 06:46:46;;;;;;;102.32;32.25;;;4.60;99.90;;;;;;4864429;29;20041;-69
2022/01/14 06:49:12;;;;;;;94.60;31.52;;;4.60;99.90;;;;;;4853398;29;20056;-68
2022/01/14 06:51:37;;;;;;;86.13;30.58;;;4.60;99.90;;;;;;4852490;29;20037;-69
2022/01/14 06:54:03;;;;;;;89.80;31.13;;;4.60;99.90;;;;;;4866312;29;20129;-69
2022/01/14 06:56:28;;;;;;;86.70;30.42;;;4.70;99.90;;;;;;4863121;29;20097;-69
2022/01/14 06:58:53;;;;;;;82.72;29.20;;;4.70;99.90;;;;;;4852843;29;20029;-69
2022/01/14 07:01:19;;;;;;;82.45;27.63;;;4.70;99.90;;;;;;4858186;29;20044;-69
2022/01/14 07:03:44;;;;;;;81.28;27.75;;;4.80;99.90;;;;;;4856407;29;20026;-69
2022/01/14 07:06:10;;;;;;;78.05;27.08;;;4.80;99.90;;;;;;4858399;29;20828;-69
2022/01/14 07:08:36;;;;;;;81.57;29.48;;;4.80;99.90;;;;;;4852140;29;20111;-69
2022/01/14 07:11:02;;;;;;;75.40;28.77;;;4.80;99.90;;;;;;4850111;29;20037;-69
2022/01/14 07:13:27;;;;;;;79.53;27.17;;;4.80;99.90;;;;;;4862626;29;20037;-69
2022/01/14 07:15:53;;;;;;;84.60;28.75;;;4.90;99.90;;;;;;4859731;29;20029;-69
2022/01/14 07:18:18;;;;;;;81.07;28.55;;;4.80;99.90;;;;;;4855723;29;20479;-69
2022/01/14 07:20:44;;;;;;;72.97;26.08;;;4.80;99.90;;;;;;4862543;29;20041;-69
2022/01/14 07:23:09;;;;;;;78.38;26.25;;;4.80;99.90;;;;;;4865961;29;20071;-70
2022/01/14 07:25:36;;;;;;;76.97;27.98;;;4.90;99.90;;;;;;4851721;29;20073;-69
2022/01/14 07:28:02;;;;;;;73.25;26.42;;;4.90;99.90;;;;;;4854818;29;20033;-69
2022/01/14 07:30:27;;;;;;;83.13;27.65;;;4.90;99.90;;;;;;4858777;29;20041;-69
2022/01/14 07:32:52;;;;;;;76.00;25.52;;;4.90;99.90;;;;;;4850059;29;20474;-69
2022/01/14 07:35:18;;;;;;;72.50;25.95;;;4.90;99.90;;;;;;4849091;29;20041;-69
2022/01/14 07:37:43;;;;;;;79.38;26.58;;;4.90;99.90;;;;;;4860152;29;20117;-69
2022/01/14 07:40:09;;;;;;;74.15;26.08;;;4.80;99.90;;;;;;4861643;29;20629;-69
2022/01/14 07:42:34;;;;;;;75.07;25.90;;;4.80;99.90;;;;;;4856052;29;20039;-69
2022/01/14 07:45:00;;;;;;;75.82;25.92;;;4.80;99.90;;;;;;4856284;29;20153;-69
2022/01/14 07:47:26;;;;;;;78.85;27.73;;;4.80;99.90;;;;;;4856832;29;20033;-70
2022/01/14 07:49:53;;;;;;;80.93;26.75;;;4.80;99.90;;;;;;4860104;29;20044;-69
2022/01/14 07:52:18;;;;;;;78.63;26.05;;;4.90;99.90;;;;;;4858271;29;20133;-70
2022/01/14 07:54:44;;;;;;;77.35;26.67;;;4.90;99.90;;;;;;4861811;29;20124;-69
2022/01/14 07:57:09;;;;;;;68.70;25.50;;;4.90;99.90;;;;;;4849708;29;20061;-70
2022/01/14 07:59:35;;;;;;;73.38;25.95;;;4.80;99.90;;;;;;4849389;29;20119;-69
2022/01/14 08:02:00;;;;;;;83.93;27.23;;;4.90;99.90;;;;;;4850760;29;20579;-69
2022/01/14 08:04:26;;;;;;;70.60;26.05;;;4.80;99.90;;;;;;4845200;29;20825;-70
2022/01/14 08:06:54;;;;;;;80.65;24.95;;;4.90;99.90;;;;;;4860179;29;20088;-70
2022/01/14 08:09:20;;;;;;;75.55;26.83;;;4.90;99.90;;;;;;4855345;29;20045;-69
2022/01/14 08:11:45;;;;;;;75.57;26.95;;;4.90;99.90;;;;;;4849349;29;20030;-70
2022/01/14 08:14:11;;;;;;;80.45;26.40;;;4.90;99.90;;;;;;4851878;29;20398;-69
2022/01/14 08:16:36;;;;;;;76.28;26.90;;;5.00;99.90;;;;;;4863054;29;20044;-70
2022/01/14 08:19:02;;;;;;;79.28;26.88;;;5.00;99.90;;;;;;4857416;29;20044;-70
2022/01/14 08:21:27;;;;;;;86.13;27.20;;;4.90;99.90;;;;;;4858323;29;20033;-69
2022/01/14 08:23:53;;;;;;;84.55;26.90;;;5.00;99.90;;;;;;4867272;29;20564;-70
2022/01/14 08:26:18;;;;;;;73.55;25.65;;;5.00;99.90;;;;;;4849737;29;20176;-70
2022/01/14 08:28:44;;;;;;;77.55;26.80;;;5.00;99.90;;;;;;4867404;29;20044;-68
2022/01/14 08:31:09;;;;;;;79.88;26.30;;;5.10;99.90;;;;;;4848122;29;20062;-69
2022/01/14 08:33:35;;;;;;;70.25;25.48;;;5.10;99.90;;;;;;4865497;29;20120;-68
2022/01/14 08:36:00;;;;;;;70.43;25.52;;;5.10;99.90;;;;;;4847938;29;20040;-69
2022/01/14 08:38:26;;;;;;;86.18;32.40;;;5.10;99.90;;;;;;4862852;29;20565;-69
2022/01/14 08:40:51;;;;;;;70.85;26.33;;;5.10;99.90;;;;;;4861933;29;20029;-69
2022/01/14 08:43:17;;;;;;;78.57;29.20;;;5.10;99.90;;;;;;4857466;29;20053;-69
2022/01/14 08:45:42;;;;;;;72.90;25.48;;;5.10;99.90;;;;;;4853950;29;20029;-69
2022/01/14 08:48:08;;;;;;;71.30;26.10;;;5.20;99.90;;;;;;4860917;29;20038;-68
2022/01/14 08:50:36;;;;;;;67.40;25.23;;;5.20;99.90;;;;;;4860619;29;20149;-69
2022/01/14 08:53:01;;;;;;;80.30;26.17;;;5.20;99.90;;;;;;4860884;29;20068;-68
2022/01/14 08:55:27;;;;;;;73.03;25.20;;;5.20;99.90;;;;;;4860314;29;20041;-70
2022/01/14 08:57:52;;;;;;;69.30;25.85;;;5.20;99.90;;;;;;4859341;29;20113;-69
2022/01/14 09:00:18;;;;;;;69.70;25.60;;;5.20;99.90;;;;;;4862997;29;20037;-69
2022/01/14 09:02:43;;;;;;;75.00;25.92;;;5.20;99.90;;;;;;4862762;29;20041;-69
2022/01/14 09:05:09;;;;;;;76.53;26.48;;;5.30;99.90;;;;;;4849417;29;20040;-69
2022/01/14 09:07:35;;;;;;;67.55;24.52;;;5.30;99.90;;;;;;4862515;29;20041;-69
2022/01/14 09:10:00;;;;;;;71.50;25.50;;;5.30;99.90;;;;;;4855934;29;20037;-69
2022/01/14 09:12:25;;;;;;;69.32;24.67;;;5.30;99.90;;;;;;4859606;29;20080;-69
2022/01/14 09:14:51;;;;;;;56.40;23.60;;;5.30;99.90;;;;;;4860901;29;20033;-70
2022/01/14 09:17:17;;;;;;;62.42;21.52;;;5.30;99.90;;;;;;4855316;29;20030;-69
2022/01/14 09:19:42;;;;;;;61.25;21.45;;;5.30;99.90;;;;;;4848690;29;20437;-69
2022/01/14 09:22:08;;;;;;;63.97;22.67;;;5.30;99.90;;;;;;4848381;29;20037;-69
2022/01/14 09:24:33;;;;;;;62.33;21.15;;;5.40;99.90;;;;;;4854618;29;20037;-69
2022/01/14 09:26:59;;;;;;;58.70;21.38;;;5.40;99.90;;;;;;4853691;29;20037;-69
2022/01/14 09:29:24;;;;;;;59.47;22.10;;;5.50;99.90;;;;;;4839367;29;20045;-69
2022/01/14 09:31:50;;;;;;;58.60;21.25;;;5.50;99.90;;;;;;4854865;29;20048;-71
2022/01/14 09:34:15;;;;;;;57.05;20.17;;;5.50;99.90;;;;;;4859278;29;20032;-68
2022/01/14 09:36:41;;;;;;;58.15;20.35;;;5.50;99.90;;;;;;4849334;29;20025;-69
2022/01/14 09:39:07;;;;;;;51.03;19.15;;;5.60;99.90;;;;;;4849217;29;20140;-68
2022/01/14 09:41:33;;;;;;;57.72;18.98;;;5.60;99.90;;;;;;4858382;29;20045;-69
2022/01/14 09:43:58;;;;;;;51.38;18.05;;;5.60;99.90;;;;;;4854186;29;20038;-69
2022/01/14 09:46:24;;;;;;;45.50;19.20;;;5.70;99.90;;;;;;4853433;29;20039;-69
2022/01/14 09:48:50;;;;;;;46.85;17.63;;;5.60;99.90;;;;;;4853835;29;20041;-70
2022/01/14 09:51:16;;;;;;;45.78;16.15;;;5.60;99.90;;;;;;4850471;29;20039;-69
2022/01/14 09:53:41;;;;;;;35.10;16.23;;;5.70;99.90;;;;;;4861953;29;20021;-69
2022/01/14 09:56:07;;;;;;;51.30;16.75;;;5.70;99.90;;;;;;4844203;29;20041;-69
2022/01/14 09:58:36;;;;;;;40.40;15.65;;;5.70;99.90;;;;;;4857478;29;20101;-69
2022/01/14 10:01:02;;;;;;;42.53;14.98;;;5.80;99.90;;;;;;4857804;29;20047;-69
2022/01/14 10:03:27;;;;;;;35.88;15.25;;;5.80;99.90;;;;;;4842526;29;20030;-69
2022/01/14 10:05:53;;;;;;;41.38;15.73;;;5.80;99.90;;;;;;4853618;29;20147;-69
2022/01/14 10:08:21;;;;;;;42.75;16.75;;;5.80;99.90;;;;;;4849316;29;20913;-69
2022/01/14 10:10:47;;;;;;;38.63;16.00;;;5.90;99.90;;;;;;4859933;29;20033;-70
2022/01/14 10:13:12;;;;;;;42.45;16.00;;;5.90;99.90;;;;;;4855996;29;20110;-70
2022/01/14 10:15:38;;;;;;;39.33;15.82;;;5.90;99.90;;;;;;4855539;29;20068;-69
2022/01/14 10:18:03;;;;;;;40.38;15.43;;;5.90;99.90;;;;;;4853362;29;20093;-70
2022/01/14 10:20:29;;;;;;;44.45;15.20;;;5.90;99.90;;;;;;4857699;29;20144;-69
2022/01/14 10:22:56;;;;;;;41.25;15.55;;;5.90;99.90;;;;;;4871897;29;20037;-69
2022/01/14 10:25:21;;;;;;;38.42;14.68;;;6.00;99.90;;;;;;4868978;29;20370;-69
2022/01/14 10:27:48;;;;;;;33.20;14.63;;;5.90;99.90;;;;;;4851631;29;20687;-69
2022/01/14 10:30:14;;;;;;;44.15;15.63;;;6.00;99.90;;;;;;4867047;29;20124;-70
2022/01/14 10:32:40;;;;;;;39.00;14.23;;;6.00;99.90;;;;;;4866134;29;20087;-69
2022/01/14 10:35:06;;;;;;;35.03;14.18;;;6.00;99.90;;;;;;4868483;29;20155;-69
2022/01/14 10:37:31;;;;;;;38.28;14.60;;;6.10;99.90;;;;;;4874734;29;20051;-69
2022/01/14 10:39:56;;;;;;;39.85;14.65;;;6.10;99.90;;;;;;4868554;29;20041;-69
2022/01/14 10:42:22;;;;;;;36.13;14.27;;;6.10;99.90;;;;;;4865290;29;20084;-69
2022/01/14 10:44:48;;;;;;;41.42;14.52;;;6.10;99.90;;;;;;4864094;29;20037;-70
2022/01/14 10:47:13;;;;;;;32.88;13.77;;;6.10;99.90;;;;;;4850715;29;20101;-70
2022/01/14 10:49:39;;;;;;;52.90;15.02;;;6.20;99.90;;;;;;4862332;29;20511;-69
2022/01/14 10:52:04;;;;;;;37.55;14.38;;;6.20;99.90;;;;;;4862974;29;20037;-70
2022/01/14 10:54:30;;;;;;;37.65;13.15;;;6.20;99.90;;;;;;4863929;29;20073;-69
2022/01/14 10:56:55;;;;;;;44.88;13.48;;;6.20;99.90;;;;;;4856511;29;20030;-69
2022/01/14 10:59:21;;;;;;;36.72;13.23;;;6.20;99.90;;;;;;4850020;29;20065;-69
2022/01/14 11:01:47;;;;;;;40.80;12.93;;;6.20;99.90;;;;;;4851659;29;20490;-69
2022/01/14 11:04:14;;;;;;;38.25;13.50;;;6.20;99.90;;;;;;4847486;29;20047;-69
2022/01/14 11:06:40;;;;;;;64.60;15.93;;;6.20;99.90;;;;;;4859088;29;20101;-69
2022/01/14 11:09:05;;;;;;;34.97;13.50;;;6.30;99.90;;;;;;4856060;29;20531;-69
2022/01/14 11:11:31;;;;;;;38.05;12.98;;;6.30;99.90;;;;;;4858314;29;20061;-70
2022/01/14 11:13:56;;;;;;;31.48;13.23;;;6.30;99.90;;;;;;4856417;29;20026;-69
2022/01/14 11:16:22;;;;;;;38.78;13.10;;;6.30;99.90;;;;;;4856785;29;20025;-69
2022/01/14 11:18:47;;;;;;;34.08;12.95;;;6.30;99.90;;;;;;4851880;29;20037;-70
2022/01/14 11:23:57;;;;;;;29.08;11.48;;;6.30;99.90;;;;;;4860979;29;20621;-69
2022/01/14 11:26:22;;;;;;;40.10;13.85;;;6.30;99.90;;;;;;4863968;29;20037;-69
2022/01/14 11:28:48;;;;;;;37.90;12.55;;;6.40;99.90;;;;;;4852798;29;20029;-69
2022/01/14 11:31:13;;;;;;;40.60;14.65;;;6.40;99.90;;;;;;4852917;29;20108;-69
2022/01/14 11:33:39;;;;;;;37.28;12.25;;;6.40;99.90;;;;;;4868856;29;20549;-69
2022/01/14 11:36:07;;;;;;;33.75;13.43;;;6.40;99.90;;;;;;4833480;29;20026;-69
2022/01/14 11:38:32;;;;;;;36.28;12.63;;;6.40;99.90;;;;;;4857287;29;20077;-69
2022/01/14 11:40:58;;;;;;;33.40;13.60;;;6.40;99.90;;;;;;4856227;29;20068;-69
2022/01/14 11:43:23;;;;;;;30.88;12.35;;;6.40;99.90;;;;;;4849501;29;20401;-69
2022/01/14 11:45:49;;;;;;;38.33;14.02;;;6.50;99.90;;;;;;4857960;29;20032;-69
2022/01/14 11:48:14;;;;;;;34.42;13.07;;;6.50;99.90;;;;;;4857729;29;20065;-69
2022/01/14 11:50:40;;;;;;;33.35;13.50;;;6.60;99.90;;;;;;4867112;29;20043;-69
2022/01/14 11:53:05;;;;;;;28.65;13.32;;;6.50;99.90;;;;;;4860467;29;20029;-69
2022/01/14 11:55:31;;;;;;;33.65;12.95;;;6.50;99.90;;;;;;4853012;29;20112;-68
2022/01/14 11:57:56;;;;;;;33.60;13.50;;;6.60;99.90;;;;;;4848165;29;20745;-69
2022/01/14 12:00:22;;;;;;;35.70;12.82;;;6.60;99.90;;;;;;4861591;29;20041;-69
2022/01/14 12:02:47;;;;;;;36.13;13.32;;;6.60;99.90;;;;;;4855207;29;20123;-68
2022/01/14 12:05:13;;;;;;;34.67;14.00;;;6.60;99.90;;;;;;4851622;29;20061;-69
2022/01/14 12:07:39;;;;;;;34.70;13.07;;;6.60;99.90;;;;;;4853644;29;20044;-69
2022/01/14 12:10:07;;;;;;;33.53;13.10;;;6.60;99.90;;;;;;4849685;29;20033;-69
2022/01/14 12:12:34;;;;;;;36.35;13.65;;;6.70;99.90;;;;;;4850184;29;20049;-69
2022/01/14 12:15:02;;;;;;;43.03;12.82;;;6.70;99.90;;;;;;4859602;29;20041;-68
2022/01/14 12:17:27;;;;;;;34.40;13.77;;;6.70;99.90;;;;;;4860675;29;20037;-69
2022/01/14 12:19:53;;;;;;;34.60;13.63;;;6.70;99.90;;;;;;4854698;29;20026;-69
2022/01/14 12:22:18;;;;;;;36.00;14.25;;;6.80;99.90;;;;;;4853357;29;20045;-68
2022/01/14 12:24:44;;;;;;;34.63;14.27;;;6.80;99.90;;;;;;4853069;29;20120;-69
2022/01/14 12:27:11;;;;;;;31.75;13.02;;;6.70;99.90;;;;;;4848991;29;20037;-69
2022/01/14 12:29:36;;;;;;;28.85;12.50;;;6.70;99.90;;;;;;4861675;29;20127;-68
2022/01/14 12:32:02;;;;;;;44.70;13.98;;;6.80;99.90;;;;;;4861840;29;20128;-69
2022/01/14 12:34:28;;;;;;;34.83;13.38;;;6.70;99.90;;;;;;4855702;29;20045;-68
2022/01/14 12:36:53;;;;;;;33.30;13.98;;;6.80;99.90;;;;;;4852404;29;20032;-69
2022/01/14 12:39:19;;;;;;;28.40;12.82;;;6.80;99.90;;;;;;4858295;29;20117;-69
2022/01/14 12:41:44;;;;;;;37.22;13.80;;;6.80;99.90;;;;;;4855887;29;20691;-70
2022/01/14 12:44:10;;;;;;;34.88;14.65;;;6.70;99.90;;;;;;4855286;29;20413;-69
2022/01/14 12:49:01;;;;;;;30.60;13.35;;;6.70;99.90;;;;;;4857343;29;20049;-69
2022/01/14 12:51:27;;;;;;;37.85;13.65;;;6.70;99.90;;;;;;4853294;29;20029;-69
2022/01/14 12:53:53;;;;;;;33.85;13.65;;;6.70;99.90;;;;;;4849932;29;20046;-69
2022/01/14 12:56:18;;;;;;;33.38;13.43;;;6.70;99.90;;;;;;4856267;29;20823;-69